sensor_id;sensor_type;location;lat;lon;timestamp;P1;durP1;ratioP1;P2;durP2;ratioP2
54406;SDS011;40313;50.308;30.374;2022-11-27T00:00:41;8.20;;;7.55;;
54406;SDS011;40313;50.308;30.374;2022-11-27T00:03:08;7.25;;;6.90;;
54406;SDS011;40313;50.308;30.374;2022-11-27T00:05:36;7.05;;;6.45;;
54406;SDS011;40313;50.308;30.374;2022-11-27T00:08:03;7.70;;;7.20;;
54406;SDS011;40313;50.308;30.374;2022-11-27T00:10:30;8.32;;;7.72;;
54406;SDS011;40313;50.308;30.374;2022-11-27T00:12:56;6.97;;;6.57;;
54406;SDS011;40313;50.308;30.374;2022-11-27T00:15:23;8.45;;;7.88;;
54406;SDS011;40313;50.308;30.374;2022-11-27T03:32:37;17.98;;;12.07;;
54406;SDS011;40313;50.308;30.374;2022-11-27T03:35:04;11.05;;;10.10;;
54406;SDS011;40313;50.308;30.374;2022-11-27T03:37:34;14.88;;;10.60;;
54406;SDS011;40313;50.308;30.374;2022-11-27T03:40:02;12.95;;;10.13;;
54406;SDS011;40313;50.308;30.374;2022-11-27T03:42:31;11.32;;;8.23;;
54406;SDS011;40313;50.308;30.374;2022-11-27T03:45:06;11.63;;;9.77;;
54406;SDS011;40313;50.308;30.374;2022-11-27T03:47:43;9.63;;;8.57;;
54406;SDS011;40313;50.308;30.374;2022-11-27T03:50:21;10.93;;;9.18;;
54406;SDS011;40313;50.308;30.374;2022-11-27T03:52:59;8.82;;;7.97;;
54406;SDS011;40313;50.308;30.374;2022-11-27T03:55:36;10.30;;;9.27;;
54406;SDS011;40313;50.308;30.374;2022-11-27T03:58:10;17.77;;;7.78;;
54406;SDS011;40313;50.308;30.374;2022-11-27T04:00:41;21.17;;;9.32;;
54406;SDS011;40313;50.308;30.374;2022-11-27T04:03:11;12.20;;;7.93;;
54406;SDS011;40313;50.308;30.374;2022-11-27T04:05:39;9.43;;;8.48;;
54406;SDS011;40313;50.308;30.374;2022-11-27T04:08:06;9.05;;;8.27;;
54406;SDS011;40313;50.308;30.374;2022-11-27T04:10:32;9.82;;;8.73;;
54406;SDS011;40313;50.308;30.374;2022-11-27T04:12:59;9.13;;;8.45;;
54406;SDS011;40313;50.308;30.374;2022-11-27T04:15:25;18.05;;;10.02;;
54406;SDS011;40313;50.308;30.374;2022-11-27T04:17:52;14.05;;;8.95;;
54406;SDS011;40313;50.308;30.374;2022-11-27T04:20:19;11.60;;;10.70;;
54406;SDS011;40313;50.308;30.374;2022-11-27T04:22:46;12.77;;;10.13;;
54406;SDS011;40313;50.308;30.374;2022-11-27T04:25:12;12.52;;;8.35;;
54406;SDS011;40313;50.308;30.374;2022-11-27T04:27:39;10.75;;;9.65;;
54406;SDS011;40313;50.308;30.374;2022-11-27T04:30:06;8.43;;;7.72;;
54406;SDS011;40313;50.308;30.374;2022-11-27T04:32:33;8.82;;;7.93;;
54406;SDS011;40313;50.308;30.374;2022-11-27T04:35:00;19.27;;;10.07;;
54406;SDS011;40313;50.308;30.374;2022-11-27T04:37:28;9.57;;;8.68;;
54406;SDS011;40313;50.308;30.374;2022-11-27T04:39:54;12.07;;;10.27;;
54406;SDS011;40313;50.308;30.374;2022-11-27T04:42:21;14.25;;;10.40;;
54406;SDS011;40313;50.308;30.374;2022-11-27T04:44:47;14.48;;;10.73;;
54406;SDS011;40313;50.308;30.374;2022-11-27T04:47:14;10.70;;;9.68;;
54406;SDS011;40313;50.308;30.374;2022-11-27T04:49:40;9.45;;;8.50;;
54406;SDS011;40313;50.308;30.374;2022-11-27T04:52:07;13.18;;;10.45;;
54406;SDS011;40313;50.308;30.374;2022-11-27T04:54:36;11.10;;;10.02;;
54406;SDS011;40313;50.308;30.374;2022-11-27T04:57:03;9.93;;;8.98;;
54406;SDS011;40313;50.308;30.374;2022-11-27T04:59:29;10.63;;;9.60;;
54406;SDS011;40313;50.308;30.374;2022-11-27T05:01:56;11.13;;;9.05;;
54406;SDS011;40313;50.308;30.374;2022-11-27T05:04:22;13.93;;;10.45;;
54406;SDS011;40313;50.308;30.374;2022-11-27T05:06:49;11.75;;;10.32;;
54406;SDS011;40313;50.308;30.374;2022-11-27T05:09:15;12.57;;;11.35;;
54406;SDS011;40313;50.308;30.374;2022-11-27T05:11:44;11.25;;;10.05;;
54406;SDS011;40313;50.308;30.374;2022-11-27T05:14:10;13.32;;;9.60;;
54406;SDS011;40313;50.308;30.374;2022-11-27T05:16:41;15.77;;;10.20;;
54406;SDS011;40313;50.308;30.374;2022-11-27T05:19:08;11.70;;;10.52;;
54406;SDS011;40313;50.308;30.374;2022-11-27T05:21:34;15.00;;;12.85;;
54406;SDS011;40313;50.308;30.374;2022-11-27T05:24:01;19.75;;;14.40;;
54406;SDS011;40313;50.308;30.374;2022-11-27T05:26:28;26.40;;;14.23;;
54406;SDS011;40313;50.308;30.374;2022-11-27T05:28:56;15.35;;;12.05;;
54406;SDS011;40313;50.308;30.374;2022-11-27T05:31:23;19.45;;;10.88;;
54406;SDS011;40313;50.308;30.374;2022-11-27T05:33:49;18.23;;;13.25;;
54406;SDS011;40313;50.308;30.374;2022-11-27T05:36:16;11.65;;;10.52;;
54406;SDS011;40313;50.308;30.374;2022-11-27T05:38:43;11.82;;;11.00;;
54406;SDS011;40313;50.308;30.374;2022-11-27T05:41:09;16.67;;;12.18;;
54406;SDS011;40313;50.308;30.374;2022-11-27T05:43:36;18.52;;;12.43;;
54406;SDS011;40313;50.308;30.374;2022-11-27T05:46:05;11.88;;;10.55;;
54406;SDS011;40313;50.308;30.374;2022-11-27T05:48:32;14.95;;;12.63;;
54406;SDS011;40313;50.308;30.374;2022-11-27T05:50:59;25.25;;;14.82;;
54406;SDS011;40313;50.308;30.374;2022-11-27T05:53:25;32.33;;;16.58;;
54406;SDS011;40313;50.308;30.374;2022-11-27T05:55:52;21.20;;;11.75;;
54406;SDS011;40313;50.308;30.374;2022-11-27T05:58:19;20.98;;;13.07;;
54406;SDS011;40313;50.308;30.374;2022-11-27T06:00:45;18.45;;;11.40;;
54406;SDS011;40313;50.308;30.374;2022-11-27T06:03:13;22.67;;;10.82;;
54406;SDS011;40313;50.308;30.374;2022-11-27T06:05:40;18.80;;;14.05;;
54406;SDS011;40313;50.308;30.374;2022-11-27T06:08:07;27.88;;;13.82;;
54406;SDS011;40313;50.308;30.374;2022-11-27T06:10:33;17.70;;;12.18;;
54406;SDS011;40313;50.308;30.374;2022-11-27T06:13:00;16.02;;;12.02;;
54406;SDS011;40313;50.308;30.374;2022-11-27T06:15:27;23.13;;;13.40;;
54406;SDS011;40313;50.308;30.374;2022-11-27T06:17:53;17.40;;;14.02;;
54406;SDS011;40313;50.308;30.374;2022-11-27T06:20:21;18.40;;;11.80;;
54406;SDS011;40313;50.308;30.374;2022-11-27T06:22:48;14.55;;;11.45;;
54406;SDS011;40313;50.308;30.374;2022-11-27T06:25:15;13.63;;;11.57;;
54406;SDS011;40313;50.308;30.374;2022-11-27T06:27:42;21.23;;;12.60;;
54406;SDS011;40313;50.308;30.374;2022-11-27T06:30:09;28.58;;;13.13;;
54406;SDS011;40313;50.308;30.374;2022-11-27T06:32:36;13.45;;;9.90;;
54406;SDS011;40313;50.308;30.374;2022-11-27T06:35:03;20.30;;;13.10;;
54406;SDS011;40313;50.308;30.374;2022-11-27T06:37:31;21.38;;;13.60;;
54406;SDS011;40313;50.308;30.374;2022-11-27T06:39:58;26.42;;;15.95;;
54406;SDS011;40313;50.308;30.374;2022-11-27T06:42:27;35.67;;;17.15;;
54406;SDS011;40313;50.308;30.374;2022-11-27T06:44:53;21.30;;;14.68;;
54406;SDS011;40313;50.308;30.374;2022-11-27T06:47:20;34.58;;;16.70;;
54406;SDS011;40313;50.308;30.374;2022-11-27T06:49:46;28.23;;;15.32;;
54406;SDS011;40313;50.308;30.374;2022-11-27T06:52:13;22.45;;;13.57;;
54406;SDS011;40313;50.308;30.374;2022-11-27T06:54:41;15.73;;;10.93;;
54406;SDS011;40313;50.308;30.374;2022-11-27T11:44:05;21.25;;;18.95;;
54406;SDS011;40313;50.308;30.374;2022-11-27T11:46:31;21.65;;;17.13;;
54406;SDS011;40313;50.308;30.374;2022-11-27T11:49:04;17.77;;;15.90;;
54406;SDS011;40313;50.308;30.374;2022-11-27T11:51:38;14.65;;;13.32;;
54406;SDS011;40313;50.308;30.374;2022-11-27T11:54:33;17.77;;;13.15;;
54406;SDS011;40313;50.308;30.374;2022-11-27T11:57:08;14.38;;;13.02;;
54406;SDS011;40313;50.308;30.374;2022-11-27T11:59:55;13.30;;;12.30;;
54406;SDS011;40313;50.308;30.374;2022-11-27T12:02:39;14.75;;;12.90;;
54406;SDS011;40313;50.308;30.374;2022-11-27T12:05:21;16.42;;;14.73;;
